Time;durP1;ratioP1;P1;durP2;ratioP2;P2;SDS_P1;SDS_P2;PMS_P1;PMS_P2;Temp;Humidity;BMP_temperature;BMP_pressure;BME280_temperature;BME280_humidity;BME280_pressure;Samples;Min_cycle;Max_cycle;Signal;HPM_P1;HPM_P2
2022/07/08 00:01:01;;;;;;;;;;;;;;;15.48;67.01;102988.31;5063658;28;19924;-59
2022/07/08 00:03:26;;;;;;;;;;;;;;;15.45;67.05;102989.44;5056005;28;20011;-61
2022/07/08 00:05:52;;;;;;;;;;;;;;;15.42;67.44;102985.22;5061611;28;20003;-59
2022/07/08 00:08:18;;;;;;;;;;;;;;;15.42;67.44;102982.53;5061198;28;19921;-60
2022/07/08 00:10:43;;;;;;;;;;;;;;;15.44;67.41;102990.41;5056245;28;19924;-59
2022/07/08 00:13:08;;;;;;;;;;;;;;;15.41;67.52;102991.56;5062423;28;20419;-58
2022/07/08 00:15:34;;;;;;;;;;;;;;;15.39;67.62;102995.34;5060386;28;19924;-61
2022/07/08 00:17:59;;;;;;;;;;;;;;;15.36;67.58;102990.28;5062131;28;19928;-59
2022/07/08 00:20:24;;;;;;;;;;;;;;;15.36;67.25;102990.28;5065958;28;19924;-60
2022/07/08 00:22:49;;;;;;;;;;;;;;;15.35;67.19;102989.44;5061696;28;19929;-60
2022/07/08 00:25:14;;;;;;;;;;;;;;;15.32;67.14;102990.56;5053247;28;19928;-58
2022/07/08 00:27:39;;;;;;;;;;;;;;;15.26;67.40;102990.28;5061240;28;19924;-59
2022/07/08 00:30:05;;;;;;;;;;;;;;;15.22;67.70;102991.53;5062668;28;19931;-61
2022/07/08 00:32:30;;;;;;;;;;;;;;;15.19;67.28;102988.16;5056157;28;19924;-60
2022/07/08 00:34:55;;;;;;;;;;;;;;;15.19;67.28;102985.50;5073448;28;19924;-58
2022/07/08 00:37:21;;;;;;;;;;;;;;;15.20;67.33;102989.03;5066895;28;20011;-59
2022/07/08 00:39:46;;;;;;;;;;;;;;;15.15;67.44;102994.75;5063284;28;19931;-59
2022/07/08 00:42:11;;;;;;;;;;;;;;;15.13;67.39;103001.22;5061034;28;20451;-60
2022/07/08 00:44:36;;;;;;;;;;;;;;;15.11;67.82;102988.03;5061766;28;20011;-62
2022/07/08 00:47:01;;;;;;;;;;;;;;;15.07;67.58;102997.28;5062784;28;19924;-59
2022/07/08 00:49:27;;;;;;;;;;;;;;;15.03;67.60;102995.88;5062560;28;20781;-60
2022/07/08 00:51:52;;;;;;;;;;;;;;;14.97;67.71;102993.75;5062268;28;19924;-60
2022/07/08 00:54:19;;;;;;;;;;;;;;;14.91;67.71;103001.34;5057604;28;20267;-61
2022/07/08 00:56:44;;;;;;;;;;;;;;;14.87;68.00;103001.75;5056380;28;19931;-60
2022/07/08 00:59:10;;;;;;;;;;;;;;;14.85;67.80;103004.56;5062964;28;19921;-59
2022/07/08 01:01:35;;;;;;;;;;;;;;;14.83;68.01;103001.19;5059591;28;20311;-59
2022/07/08 01:04:01;;;;;;;;;;;;;;;14.79;68.24;102994.41;5059594;28;20023;-59
2022/07/08 01:06:26;;;;;;;;;;;;;;;14.79;68.07;102999.75;5062038;28;20025;-60
2022/07/08 01:08:52;;;;;;;;;;;;;;;14.74;68.29;102996.63;5062385;28;19924;-59
2022/07/08 01:11:17;;;;;;;;;;;;;;;14.70;68.29;102996.03;5064297;28;19967;-60
2022/07/08 01:13:42;;;;;;;;;;;;;;;14.69;68.37;102996.19;5072720;28;19994;-59
2022/07/08 01:16:08;;;;;;;;;;;;;;;14.65;68.23;102999.13;5062670;28;19924;-59
2022/07/08 01:18:33;;;;;;;;;;;;;;;14.64;68.08;102996.59;5062001;28;19924;-60
2022/07/08 01:20:58;;;;;;;;;;;;;;;14.62;68.62;103002.09;5051375;28;19936;-59
2022/07/08 01:23:24;;;;;;;;;;;;;;;14.52;68.61;102996.69;5057482;28;20647;-59
2022/07/08 01:25:49;;;;;;;;;;;;;;;14.50;68.83;102995.97;5060869;28;19932;-60
2022/07/08 01:28:15;;;;;;;;;;;;;;;14.49;68.68;102993.44;5060053;28;19921;-59
2022/07/08 01:30:41;;;;;;;;;;;;;;;14.46;68.78;103004.41;5055696;28;20742;-60
2022/07/08 01:33:06;;;;;;;;;;;;;;;14.45;68.73;103000.88;5059056;28;19932;-59
2022/07/08 01:35:32;;;;;;;;;;;;;;;14.42;68.87;102992.28;5065959;28;19920;-59
2022/07/08 01:37:57;;;;;;;;;;;;;;;14.39;68.65;102993.41;5054912;28;20343;-59
2022/07/08 01:40:22;;;;;;;;;;;;;;;14.37;68.74;102995.38;5045652;28;19936;-60
2022/07/08 01:42:47;;;;;;;;;;;;;;;14.33;68.63;103000.13;5049126;28;20085;-60
2022/07/08 01:45:12;;;;;;;;;;;;;;;14.30;68.87;102995.06;5052608;28;19925;-60
2022/07/08 01:47:38;;;;;;;;;;;;;;;14.28;69.11;102993.50;5048290;28;19939;-62
2022/07/08 01:50:03;;;;;;;;;;;;;;;14.25;69.37;102991.94;5054607;28;19931;-60
2022/07/08 01:52:29;;;;;;;;;;;;;;;14.23;69.21;102988.56;5061930;28;19959;-59
2022/07/08 01:54:54;;;;;;;;;;;;;;;14.21;69.05;102985.19;5056325;28;20106;-58
2022/07/08 01:57:21;;;;;;;;;;;;;;;14.19;69.35;102976.47;5069193;28;19936;-60
2022/07/08 01:59:47;;;;;;;;;;;;;;;14.18;69.55;102974.78;5065483;28;19967;-59
2022/07/08 02:02:13;;;;;;;;;;;;;;;14.14;69.32;102976.88;5061348;28;19960;-59
2022/07/08 02:04:39;;;;;;;;;;;;;;;14.10;69.48;102983.44;5066181;28;19924;-59
2022/07/08 02:07:05;;;;;;;;;;;;;;;14.06;69.62;102988.19;5072497;28;20314;-60
2022/07/08 02:09:30;;;;;;;;;;;;;;;14.01;69.77;102990.41;5060579;28;19931;-61
2022/07/08 02:14:40;;;;;;;;;;;;;;;13.91;69.86;102987.69;5070040;28;19970;-59
2022/07/08 02:17:05;;;;;;;;;;;;;;;13.91;70.16;102990.34;5066390;28;19924;-60
2022/07/08 02:19:31;;;;;;;;;;;;;;;13.88;70.12;102995.97;5065334;28;19968;-61
2022/07/08 02:21:56;;;;;;;;;;;;;;;13.89;70.18;102992.31;5066616;28;20028;-59
2022/07/08 02:24:22;;;;;;;;;;;;;;;13.90;70.12;102987.81;5058956;28;20019;-59
2022/07/08 02:26:47;;;;;;;;;;;;;;;13.89;70.29;102997.66;5066339;28;20456;-59
2022/07/08 02:29:12;;;;;;;;;;;;;;;13.90;70.25;102998.47;5053608;28;19971;-60
2022/07/08 02:31:37;;;;;;;;;;;;;;;13.90;70.23;102994.00;5063712;28;20370;-59
2022/07/08 02:34:02;;;;;;;;;;;;;;;13.91;70.21;102992.19;5059716;28;19928;-59
2022/07/08 02:36:28;;;;;;;;;;;;;;;13.88;70.41;102989.78;5067171;28;20465;-59
2022/07/08 02:38:53;;;;;;;;;;;;;;;13.85;70.56;102991.72;5050886;28;20006;-60
2022/07/08 02:41:18;;;;;;;;;;;;;;;13.82;70.57;102991.97;5070880;28;19968;-59
2022/07/08 02:43:43;;;;;;;;;;;;;;;13.83;70.81;102990.16;5063532;28;20412;-59
2022/07/08 02:46:08;;;;;;;;;;;;;;;13.82;70.71;102991.97;5060357;28;19939;-60
2022/07/08 02:48:34;;;;;;;;;;;;;;;13.81;70.87;102995.63;5062858;28;20383;-59
2022/07/08 02:50:59;;;;;;;;;;;;;;;13.84;70.68;102990.03;5065106;28;20557;-59
2022/07/08 02:53:24;;;;;;;;;;;;;;;13.85;71.00;102986.41;5057640;28;19924;-58
2022/07/08 02:55:49;;;;;;;;;;;;;;;13.86;70.75;102989.88;5066861;28;19928;-59
2022/07/08 02:58:15;;;;;;;;;;;;;;;13.87;70.85;102982.75;5058554;28;20415;-59
2022/07/08 03:00:40;;;;;;;;;;;;;;;13.87;70.83;102990.75;5062027;28;19928;-60
2022/07/08 03:03:05;;;;;;;;;;;;;;;13.84;70.73;102990.03;5055600;28;19924;-59
2022/07/08 03:05:30;;;;;;;;;;;;;;;13.85;71.12;102991.72;5060414;28;20366;-60
2022/07/08 03:07:55;;;;;;;;;;;;;;;13.83;70.93;102990.16;5060379;28;19924;-60
2022/07/08 03:10:20;;;;;;;;;;;;;;;13.83;71.07;103004.31;5054680;28;19955;-60
2022/07/08 03:12:46;;;;;;;;;;;;;;;13.83;70.97;103006.16;5059569;28;20371;-59
2022/07/08 03:15:11;;;;;;;;;;;;;;;13.84;71.17;103006.03;5077720;28;20042;-60
2022/07/08 03:17:36;;;;;;;;;;;;;;;13.83;71.29;103004.31;5063118;28;20746;-59
2022/07/08 03:20:01;;;;;;;;;;;;;;;13.83;71.12;103004.31;5046729;28;20007;-61
2022/07/08 03:22:27;;;;;;;;;;;;;;;13.82;71.03;103002.63;5048360;28;19925;-60
2022/07/08 03:24:52;;;;;;;;;;;;;;;13.81;70.95;102995.63;5053262;28;20023;-61
2022/07/08 03:27:17;;;;;;;;;;;;;;;13.78;71.02;102995.91;5048421;28;19925;-60
2022/07/08 03:29:42;;;;;;;;;;;;;;;13.75;71.35;102997.94;5050725;28;20040;-59
2022/07/08 03:32:07;;;;;;;;;;;;;;;13.70;71.42;102999.22;5054745;28;20703;-59
2022/07/08 03:34:33;;;;;;;;;;;;;;;13.69;71.41;103002.84;5062482;28;20268;-59
2022/07/08 03:36:58;;;;;;;;;;;;;;;13.65;71.33;103006.75;5051609;28;19933;-61
2022/07/08 03:39:24;;;;;;;;;;;;;;;13.64;71.33;103009.53;5056037;28;19934;-60
2022/07/08 03:41:49;;;;;;;;;;;;;;;13.62;71.53;103011.47;5057890;28;19924;-59
2022/07/08 03:44:14;;;;;;;;;;;;;;;13.63;71.57;103013.16;5060544;28;19924;-60
2022/07/08 03:46:40;;;;;;;;;;;;;;;13.61;71.46;103015.13;5058614;28;20009;-59
2022/07/08 03:49:05;;;;;;;;;;;;;;;13.56;71.73;103011.03;5072182;28;19943;-60
2022/07/08 03:51:30;;;;;;;;;;;;;;;13.51;71.69;102999.88;5062846;28;20424;-59
2022/07/08 03:53:55;;;;;;;;;;;;;;;13.47;71.88;103001.09;5058114;28;19956;-60
2022/07/08 03:56:20;;;;;;;;;;;;;;;13.44;71.56;103009.34;5060837;28;19924;-59
2022/07/08 03:58:46;;;;;;;;;;;;;;;13.42;71.80;103011.31;5064465;28;20007;-60
2022/07/08 04:01:11;;;;;;;;;;;;;;;13.37;72.17;103008.16;5059632;28;19925;-60
2022/07/08 04:03:36;;;;;;;;;;;;;;;13.37;71.88;103008.16;5057086;28;19982;-60
2022/07/08 04:06:01;;;;;;;;;;;;;;;13.37;71.96;103008.16;5072191;28;20273;-59
2022/07/08 04:08:27;;;;;;;;;;;;;;;13.38;71.97;103005.34;5058453;28;19924;-60
2022/07/08 04:10:53;;;;;;;;;;;;;;;13.40;71.85;103013.22;5062914;28;19924;-60
2022/07/08 04:13:19;;;;;;;;;;;;;;;13.40;71.95;103008.75;5073618;28;20382;-60
2022/07/08 04:15:44;;;;;;;;;;;;;;;13.39;72.17;103011.53;5060785;28;19936;-59
2022/07/08 04:18:09;;;;;;;;;;;;;;;13.35;72.76;103010.09;5062715;28;19928;-60
2022/07/08 04:20:34;;;;;;;;;;;;;;;13.32;72.39;103014.72;5060532;28;20166;-60
2022/07/08 04:22:59;;;;;;;;;;;;;;;13.34;72.75;103013.72;5066176;28;19924;-59
2022/07/08 04:25:24;;;;;;;;;;;;;;;13.33;72.44;103015.56;5044590;28;20019;-59
2022/07/08 04:27:50;;;;;;;;;;;;;;;13.36;72.42;103007.31;5061305;28;19970;-59
2022/07/08 04:30:15;;;;;;;;;;;;;;;13.32;74.35;103012.03;5060619;28;20024;-58
2022/07/08 04:32:40;;;;;;;;;;;;;;;13.29;73.35;103012.31;5066468;28;19973;-59
2022/07/08 04:35:05;;;;;;;;;;;;;;;13.30;72.55;103018.47;5061044;28;20007;-59
2022/07/08 04:37:31;;;;;;;;;;;;;;;13.32;72.50;103022.69;5064046;28;19974;-59
2022/07/08 04:39:56;;;;;;;;;;;;;;;13.34;72.60;103029.72;5058284;28;19932;-59
2022/07/08 04:42:21;;;;;;;;;;;;;;;13.32;72.52;103028.03;5055083;28;19934;-59
2022/07/08 04:44:46;;;;;;;;;;;;;;;13.34;72.73;103029.72;5057355;28;19977;-59
2022/07/08 04:47:11;;;;;;;;;;;;;;;13.35;72.69;103036.75;5067083;28;19975;-59
2022/07/08 04:49:37;;;;;;;;;;;;;;;13.36;72.78;103038.47;5061943;28;19925;-60
2022/07/08 04:52:06;;;;;;;;;;;;;;;13.36;72.84;103038.47;5057421;28;19925;-60
2022/07/08 04:54:31;;;;;;;;;;;;;;;13.39;72.86;103040.84;5056315;28;19963;-59
2022/07/08 04:56:56;;;;;;;;;;;;;;;13.37;74.92;103046.31;5045549;28;20490;-59
2022/07/08 04:59:22;;;;;;;;;;;;;;;13.33;73.42;103044.88;5045873;28;20732;-59
2022/07/08 05:01:47;;;;;;;;;;;;;;;13.36;73.25;103049.13;5056489;28;19931;-60
2022/07/08 05:04:12;;;;;;;;;;;;;;;13.41;73.13;103052.22;5052700;28;19932;-59
2022/07/08 05:06:38;;;;;;;;;;;;;;;13.44;73.30;103051.97;5066658;28;19955;-59
2022/07/08 05:09:03;;;;;;;;;;;;;;;13.48;73.14;103048.13;5062882;28;20021;-60
2022/07/08 05:11:28;;;;;;;;;;;;;;;13.52;73.29;103049.56;5062760;28;19931;-61
2022/07/08 05:13:53;;;;;;;;;;;;;;;13.50;75.37;103056.84;5069694;28;19967;-60
2022/07/08 05:16:19;;;;;;;;;;;;;;;13.48;73.94;103048.13;5063393;28;19955;-59
2022/07/08 05:18:44;;;;;;;;;;;;;;;13.52;75.46;103052.22;5068345;28;19959;-60
2022/07/08 05:21:09;;;;;;;;;;;;;;;13.55;73.96;103059.13;5058658;28;19924;-60
2022/07/08 05:23:34;;;;;;;;;;;;;;;13.55;74.37;103054.66;5058923;28;19931;-60
2022/07/08 05:25:59;;;;;;;;;;;;;;;13.55;73.67;103067.97;5070267;28;19934;-59
2022/07/08 05:28:25;;;;;;;;;;;;;;;13.57;75.44;103070.53;5061214;28;19928;-60
2022/07/08 05:30:50;;;;;;;;;;;;;;;13.58;75.40;103067.72;5067242;28;20652;-59
2022/07/08 05:33:15;;;;;;;;;;;;;;;13.62;74.07;103070.13;5057475;28;19924;-59
2022/07/08 05:35:40;;;;;;;;;;;;;;;13.67;74.95;103078.59;5062796;28;19985;-59
2022/07/08 05:38:05;;;;;;;;;;;;;;;13.71;74.59;103080.03;5059964;28;19935;-59
2022/07/08 05:40:30;;;;;;;;;;;;;;;13.75;74.45;103068.13;5063404;28;19931;-60
2022/07/08 05:42:56;;;;;;;;;;;;;;;13.82;73.89;103077.31;5067430;28;20283;-59
2022/07/08 05:45:21;;;;;;;;;;;;;;;13.90;73.56;103078.47;5058094;28;19925;-61
2022/07/08 05:47:46;;;;;;;;;;;;;;;14.00;73.69;103079.41;5063387;28;20459;-60
2022/07/08 05:50:11;;;;;;;;;;;;;;;14.02;73.45;103074.81;5064192;28;19925;-59
2022/07/08 05:52:36;;;;;;;;;;;;;;;14.07;73.90;103085.91;5066325;28;19946;-63
2022/07/08 05:55:02;;;;;;;;;;;;;;;14.16;73.86;103083.47;5056018;28;19924;-63
2022/07/08 05:57:27;;;;;;;;;;;;;;;14.27;73.56;103091.41;5058621;28;20375;-63
2022/07/08 05:59:53;;;;;;;;;;;;;;;14.31;73.39;103091.97;5056263;28;19924;-63
2022/07/08 06:02:18;;;;;;;;;;;;;;;14.36;73.13;103090.59;5052673;28;19936;-63
2022/07/08 06:04:43;;;;;;;;;;;;;;;14.45;73.09;103096.16;5056899;28;19925;-64
2022/07/08 06:07:09;;;;;;;;;;;;;;;14.56;72.84;103096.03;5058671;28;19931;-62
2022/07/08 06:09:34;;;;;;;;;;;;;;;14.66;73.66;103098.78;5077999;28;19923;-63
2022/07/08 06:11:59;;;;;;;;;;;;;;;14.74;72.67;103099.00;5071376;28;19924;-63
2022/07/08 06:14:25;;;;;;;;;;;;;;;14.84;72.73;103104.38;5054416;28;19925;-63
2022/07/08 06:16:50;;;;;;;;;;;;;;;14.93;72.63;103103.56;5054316;28;19931;-63
2022/07/08 06:19:15;;;;;;;;;;;;;;;15.07;72.51;103098.84;5054992;28;19924;-62
2022/07/08 06:21:40;;;;;;;;;;;;;;;15.13;72.64;103097.44;5054301;28;20015;-62
2022/07/08 06:24:06;;;;;;;;;;;;;;;15.24;72.29;103099.16;5054153;28;19933;-62
2022/07/08 06:26:31;;;;;;;;;;;;;;;15.30;72.23;103103.97;5052700;28;19968;-62
2022/07/08 06:28:56;;;;;;;;;;;;;;;15.38;72.14;103106.78;5056550;28;20371;-62
2022/07/08 06:31:21;;;;;;;;;;;;;;;15.44;72.09;103106.22;5054849;28;19932;-62
2022/07/08 06:33:47;;;;;;;;;;;;;;;15.57;71.73;103100.63;5052756;28;19925;-63
2022/07/08 06:36:12;;;;;;;;;;;;;;;15.68;71.56;103102.31;5055291;28;20009;-63
2022/07/08 06:38:37;;;;;;;;;;;;;;;15.70;71.30;103099.50;5053557;28;19931;-63
2022/07/08 06:41:03;;;;;;;;;;;;;;;15.79;71.43;103097.81;5055368;28;19925;-63
2022/07/08 06:43:28;;;;;;;;;;;;;;;15.87;70.62;103096.13;5052245;28;19930;-63
2022/07/08 06:45:53;;;;;;;;;;;;;;;15.89;70.95;103100.47;5056875;28;20002;-64
2022/07/08 06:48:18;;;;;;;;;;;;;;;15.89;70.30;103106.66;5053976;28;19987;-63
2022/07/08 06:50:43;;;;;;;;;;;;;;;16.00;69.24;103117.25;5059427;28;19930;-62
2022/07/08 06:53:09;;;;;;;;;;;;;;;15.96;69.70;103110.53;5055380;28;20350;-63
2022/07/08 06:55:34;;;;;;;;;;;;;;;15.93;69.54;103109.97;5071426;28;19924;-63
2022/07/08 06:57:59;;;;;;;;;;;;;;;15.84;69.68;103117.78;5032417;28;20010;-63
2022/07/08 07:00:25;;;;;;;;;;;;;;;15.78;69.41;103115.69;5061382;28;20333;-63
2022/07/08 07:02:50;;;;;;;;;;;;;;;15.83;69.56;103109.91;5064863;28;19921;-63
2022/07/08 07:05:17;;;;;;;;;;;;;;;15.87;69.60;103112.19;5064891;28;19928;-63
2022/07/08 07:07:42;;;;;;;;;;;;;;;15.90;69.45;103111.06;5064772;28;19924;-65
2022/07/08 07:10:08;;;;;;;;;;;;;;;15.89;69.27;103117.38;5059329;28;19977;-62
2022/07/08 07:12:33;;;;;;;;;;;;;;;15.77;69.62;103116.69;5058753;28;19925;-63
2022/07/08 07:14:58;;;;;;;;;;;;;;;15.86;69.66;103120.34;5048468;28;19975;-63
2022/07/08 07:17:23;;;;;;;;;;;;;;;15.99;69.57;103114.75;5049216;28;20112;-63
2022/07/08 07:19:49;;;;;;;;;;;;;;;16.16;69.74;103123.88;5065889;28;19936;-63
2022/07/08 07:22:16;;;;;;;;;;;;;;;16.34;69.38;103118.63;5046899;28;19929;-64
2022/07/08 07:24:41;;;;;;;;;;;;;;;16.43;68.86;103113.41;5044335;28;20368;-63
2022/07/08 07:27:06;;;;;;;;;;;;;;;16.51;68.89;103109.00;5045944;28;20031;-62
2022/07/08 07:29:32;;;;;;;;;;;;;;;16.61;68.25;103114.34;5048332;28;19928;-62
2022/07/08 07:31:57;;;;;;;;;;;;;;;16.78;67.13;103119.91;5061307;28;19932;-64
2022/07/08 07:34:22;;;;;;;;;;;;;;;16.76;67.29;103112.03;5049218;28;19951;-63
2022/07/08 07:36:47;;;;;;;;;;;;;;;16.76;68.01;103116.53;5044130;28;19940;-64
2022/07/08 07:39:13;;;;;;;;;;;;;;;16.87;67.51;103112.84;5045547;28;19975;-60
2022/07/08 07:41:38;;;;;;;;;;;;;;;16.89;67.78;103116.19;5045697;28;20493;-63
2022/07/08 07:44:03;;;;;;;;;;;;;;;16.97;67.54;103113.63;5048043;28;20015;-63
2022/07/08 07:46:29;;;;;;;;;;;;;;;17.11;67.16;103111.47;5048396;28;20283;-61
2022/07/08 07:48:54;;;;;;;;;;;;;;;17.10;66.42;103107.09;5051237;28;19928;-61
2022/07/08 07:51:19;;;;;;;;;;;;;;;17.24;66.96;103114.66;5046083;28;19982;-62
2022/07/08 07:53:44;;;;;;;;;;;;;;;17.31;66.64;103110.34;5049115;28;20294;-64
2022/07/08 07:56:09;;;;;;;;;;;;;;;17.38;67.14;103104.41;5047288;28;20299;-60
2022/07/08 07:58:35;;;;;;;;;;;;;;;17.53;66.65;103107.41;5054686;28;19928;-63
2022/07/08 08:01:00;;;;;;;;;;;;;;;17.63;66.64;103101.94;5048912;28;19932;-64
2022/07/08 08:03:25;;;;;;;;;;;;;;;17.71;67.04;103099.38;5047412;28;20656;-61
2022/07/08 08:05:51;;;;;;;;;;;;;;;17.77;65.60;103104.13;5049218;28;19928;-62
2022/07/08 08:08:16;;;;;;;;;;;;;;;17.81;65.10;103108.16;5062126;28;20425;-61
2022/07/08 08:10:41;;;;;;;;;;;;;;;17.75;64.78;103111.44;5056156;28;20444;-63
2022/07/08 08:13:06;;;;;;;;;;;;;;;17.69;65.05;103117.44;5043899;28;19924;-64
2022/07/08 08:15:32;;;;;;;;;;;;;;;17.72;65.37;103117.97;5049371;28;19924;-61
2022/07/08 08:17:58;;;;;;;;;;;;;;;17.81;64.88;103120.75;5046652;28;19931;-62
2022/07/08 08:20:27;;;;;;;;;;;;;;;17.80;64.63;103111.00;5054616;28;19974;-61
2022/07/08 08:22:52;;;;;;;;;;;;;;;17.93;64.97;103113.28;5052207;28;20045;-63
2022/07/08 08:25:18;;;;;;;;;;;;;;;18.07;64.51;103110.09;5048614;28;19966;-61
2022/07/08 08:27:45;;;;;;;;;;;;;;;18.13;64.41;103108.59;5049812;28;21583;-63
2022/07/08 08:30:11;;;;;;;;;;;;;;;18.21;64.19;103110.53;5058176;28;19931;-62
2022/07/08 08:32:36;;;;;;;;;;;;;;;18.26;64.57;103118.94;5063760;28;19924;-62
2022/07/08 08:35:02;;;;;;;;;;;;;;;18.29;64.16;103118.63;5058401;28;21068;-62
2022/07/08 08:37:27;;;;;;;;;;;;;;;18.25;61.60;103111.88;5048267;28;19924;-61
2022/07/08 08:39:52;;;;;;;;;;;;;;;18.26;63.31;103124.31;5063099;28;19921;-63
2022/07/08 08:42:19;;;;;;;;;;;;;;;18.29;62.70;103124.00;5063664;28;19995;-62
2022/07/08 08:44:44;;;;;;;;;;;;;;;18.29;63.34;103118.63;5056754;28;19924;-61
2022/07/08 08:47:11;;;;;;;;;;;;;;;18.45;63.24;103117.06;5044599;28;20437;-62
2022/07/08 08:49:36;;;;;;;;;;;;;;;18.51;62.11;103106.50;5065198;28;19920;-61
2022/07/08 08:52:02;;;;;;;;;;;;;;;18.59;61.21;103105.72;5062770;28;19936;-62
2022/07/08 08:54:32;;;;;;;;;;;;;;;18.59;60.21;103111.06;5054796;28;19924;-62
2022/07/08 08:56:58;;;;;;;;;;;;;;;18.62;57.63;103110.78;5051301;28;19936;-62
2022/07/08 08:59:23;;;;;;;;;;;;;;;18.69;60.74;103102.91;5058415;28;19924;-61
2022/07/08 09:01:49;;;;;;;;;;;;;;;18.72;59.82;103102.59;5059800;28;19935;-63
2022/07/08 09:04:14;;;;;;;;;;;;;;;18.79;60.97;103098.25;5058639;28;20477;-61
2022/07/08 09:06:40;;;;;;;;;;;;;;;18.89;60.32;103091.91;5063658;28;19951;-61
2022/07/08 09:09:05;;;;;;;;;;;;;;;18.90;60.89;103094.41;5067231;28;19920;-61
2022/07/08 09:11:32;;;;;;;;;;;;;;;19.02;60.81;103096.81;5059723;28;19935;-61
2022/07/08 09:14:14;;;;;;;;;;;;;;;19.11;60.40;103100.41;5061881;28;20385;-62
2022/07/08 09:16:39;;;;;;;;;;;;;;;19.18;59.60;103096.06;5051404;28;20798;-60
2022/07/08 09:19:11;;;;;;;;;;;;;;;19.21;57.88;103096.56;5061531;28;19927;-64
2022/07/08 09:21:36;;;;;;;;;;;;;;;19.28;60.55;103096.75;5065163;28;19932;-63
2022/07/08 09:24:16;;;;;;;;;;;;;;;19.42;59.70;103097.97;5057642;28;20291;-62
2022/07/08 09:26:41;;;;;;;;;;;;;;;19.45;59.36;103100.31;5053000;28;19977;-62
2022/07/08 09:29:07;;;;;;;;;;;;;;;19.52;59.15;103107.72;5060601;28;20019;-62
2022/07/08 09:31:34;;;;;;;;;;;;;;;19.43;59.74;103096.94;5069726;28;20360;-61
2022/07/08 09:34:05;;;;;;;;;;;;;;;19.55;59.52;103097.50;5061619;28;19951;-61
2022/07/08 09:36:42;;;;;;;;;;;;;;;19.69;58.42;103108.59;5062126;28;20025;-63
2022/07/08 09:39:15;;;;;;;;;;;;;;;19.87;58.66;103103.03;5061650;28;20039;-61
2022/07/08 09:41:46;;;;;;;;;;;;;;;19.75;58.84;103097.97;5051378;28;20286;-62
2022/07/08 09:44:14;;;;;;;;;;;;;;;19.89;59.28;103093.78;5059625;28;20030;-63
2022/07/08 09:46:39;;;;;;;;;;;;;;;19.95;58.33;103102.19;5051567;28;19932;-61
2022/07/08 09:49:05;;;;;;;;;;;;;;;20.00;57.60;103103.41;5053138;28;19935;-64
2022/07/08 09:51:30;;;;;;;;;;;;;;;20.12;58.07;103103.91;5061310;28;19935;-63
2022/07/08 09:54:08;;;;;;;;;;;;;;;20.24;57.62;103096.28;5059820;28;19928;-64
2022/07/08 09:56:33;;;;;;;;;;;;;;;20.39;58.17;103092.91;5048988;28;20023;-63
2022/07/08 09:58:58;;;;;;;;;;;;;;;20.48;58.03;103096.41;5054055;28;20023;-61
2022/07/08 10:01:24;;;;;;;;;;;;;;;20.51;57.28;103096.91;5062445;28;20256;-64
2022/07/08 10:03:49;;;;;;;;;;;;;;;20.50;56.85;103097.94;5043915;28;20002;-61
2022/07/08 10:06:14;;;;;;;;;;;;;;;20.46;55.16;103099.28;5056579;28;19935;-64
2022/07/08 10:08:40;;;;;;;;;;;;;;;20.59;56.79;103097.88;5063347;28;20296;-61
2022/07/08 10:11:06;;;;;;;;;;;;;;;20.63;56.95;103104.63;5053086;28;19924;-64
2022/07/08 10:13:31;;;;;;;;;;;;;;;20.74;56.90;103103.41;5058600;28;19961;-61
2022/07/08 10:15:58;;;;;;;;;;;;;;;20.87;57.08;103105.56;5064697;28;19963;-64
2022/07/08 10:18:39;;;;;;;;;;;;;;;20.93;54.94;103105.69;5055690;28;19968;-64
2022/07/08 10:21:07;;;;;;;;;;;;;;;21.02;57.26;103111.06;5058480;28;19931;-64
2022/07/08 10:23:36;;;;;;;;;;;;;;;21.04;56.78;103101.78;5063529;28;19978;-61
2022/07/08 10:26:02;;;;;;;;;;;;;;;21.01;53.52;103104.81;5056184;28;20379;-61
2022/07/08 10:28:37;;;;;;;;;;;;;;;20.96;55.97;103101.81;5057445;28;20043;-63
2022/07/08 10:31:03;;;;;;;;;;;;;;;21.05;56.83;103100.75;5059763;28;20009;-61
2022/07/08 10:33:30;;;;;;;;;;;;;;;21.06;56.09;103099.75;5064570;28;19958;-62
2022/07/08 10:36:05;;;;;;;;;;;;;;;21.10;57.40;103098.38;5053270;28;19924;-61
2022/07/08 10:38:41;;;;;;;;;;;;;;;21.27;56.56;103095.59;5049696;28;19929;-63
2022/07/08 10:41:07;;;;;;;;;;;;;;;21.34;56.53;103082.22;5048184;28;19925;-64
2022/07/08 10:43:33;;;;;;;;;;;;;;;21.47;56.27;103084.31;5049618;28;19924;-64
2022/07/08 10:45:59;;;;;;;;;;;;;;;21.53;56.37;103088.16;5049238;28;19931;-64
2022/07/08 10:48:45;;;;;;;;;;;;;;;21.64;54.70;103082.31;5051554;28;19931;-64
2022/07/08 10:51:20;;;;;;;;;;;;;;;21.73;55.64;103075.88;5049703;28;19928;-64
2022/07/08 10:53:52;;;;;;;;;;;;;;;21.89;56.29;103083.00;5051555;28;19924;-64
2022/07/08 10:56:36;;;;;;;;;;;;;;;22.04;55.84;103079.47;5054457;28;19977;-64
2022/07/08 10:59:20;;;;;;;;;;;;;;;22.10;56.21;103081.41;5051649;28;20024;-63
2022/07/08 11:01:52;;;;;;;;;;;;;;;21.92;56.13;103086.34;5065875;28;19975;-64
2022/07/08 11:04:36;;;;;;;;;;;;;;;21.74;55.47;103087.50;5057766;28;19931;-60
2022/07/08 11:07:29;;;;;;;;;;;;;;;21.55;56.06;103092.34;5061341;28;19925;-60
2022/07/08 11:10:13;;;;;;;;;;;;;;;21.73;55.33;103088.53;5055656;28;19928;-62
2022/07/08 11:12:44;;;;;;;;;;;;;;;21.90;54.55;103092.75;5073076;28;19924;-60
2022/07/08 11:15:10;;;;;;;;;;;;;;;21.86;54.54;103088.75;5071378;28;20018;-59
2022/07/08 11:17:36;;;;;;;;;;;;;;;22.00;54.47;103083.56;5064346;28;20684;-59
2022/07/08 11:20:09;;;;;;;;;;;;;;;22.00;54.68;103081.69;5049504;28;19985;-59
2022/07/08 11:22:35;;;;;;;;;;;;;;;22.02;53.83;103076.13;5045162;28;20421;-60
2022/07/08 11:25:00;;;;;;;;;;;;;;;21.99;53.95;103081.88;5065006;28;19921;-59
2022/07/08 11:27:27;;;;;;;;;;;;;;;22.02;54.62;103076.94;5058443;28;19969;-61
2022/07/08 11:29:53;;;;;;;;;;;;;;;22.16;54.74;103077.97;5067580;28;19935;-60
2022/07/08 11:32:19;;;;;;;;;;;;;;;22.34;54.34;103084.06;5065686;28;19947;-59
2022/07/08 11:34:46;;;;;;;;;;;;;;;22.56;54.66;103088.53;5055516;28;19928;-59
2022/07/08 11:37:11;;;;;;;;;;;;;;;22.68;54.06;103080.81;5052797;28;19924;-59
2022/07/08 11:39:37;;;;;;;;;;;;;;;22.52;52.85;103081.00;5058994;28;19924;-59
2022/07/08 11:42:02;;;;;;;;;;;;;;;22.32;54.18;103081.53;5060804;28;20800;-59
2022/07/08 11:44:27;;;;;;;;;;;;;;;22.41;54.13;103080.41;5064770;28;20408;-59
2022/07/08 11:46:54;;;;;;;;;;;;;;;22.53;54.61;103077.28;5056210;28;20034;-61
2022/07/08 11:49:20;;;;;;;;;;;;;;;22.68;53.69;103070.00;5064233;28;20500;-59
2022/07/08 11:51:46;;;;;;;;;;;;;;;22.89;53.36;103081.88;5056641;28;20003;-58
2022/07/08 11:54:12;;;;;;;;;;;;;;;22.71;53.99;103077.72;5060189;28;20766;-59
2022/07/08 11:56:37;;;;;;;;;;;;;;;22.76;53.69;103074.47;5047415;28;20048;-59
2022/07/08 11:59:03;;;;;;;;;;;;;;;22.79;53.79;103070.53;5057484;28;20518;-59
2022/07/08 12:01:28;;;;;;;;;;;;;;;22.78;53.73;103071.53;5057394;28;19925;-59
2022/07/08 12:03:53;;;;;;;;;;;;;;;22.57;54.31;103078.59;5062360;28;19924;-59
2022/07/08 12:06:22;;;;;;;;;;;;;;;22.46;54.45;103070.91;5067808;28;19935;-57
2022/07/08 12:08:48;;;;;;;;;;;;;;;22.57;54.23;103063.22;5061217;28;19920;-56
2022/07/08 12:11:14;;;;;;;;;;;;;;;22.55;53.81;103069.81;5052937;28;19936;-56
2022/07/08 12:13:43;;;;;;;;;;;;;;;22.27;53.25;103067.75;5060373;28;20019;-57
2022/07/08 12:16:08;;;;;;;;;;;;;;;22.10;53.78;103062.50;5062346;28;19924;-56
2022/07/08 12:18:40;;;;;;;;;;;;;;;21.86;54.46;103060.91;5061055;28;20421;-57
2022/07/08 12:21:18;;;;;;;;;;;;;;;21.95;53.26;103058.97;5051547;28;20415;-57
2022/07/08 12:23:44;;;;;;;;;;;;;;;22.22;53.41;103067.47;5052426;28;20264;-58
2022/07/08 12:26:10;;;;;;;;;;;;;;;22.47;54.43;103059.91;5059512;28;20010;-58
2022/07/08 12:28:35;;;;;;;;;;;;;;;22.73;53.98;103057.78;5063304;28;19920;-56
2022/07/08 12:31:00;;;;;;;;;;;;;;;23.02;53.12;103058.72;5059129;28;19924;-58
2022/07/08 12:33:27;;;;;;;;;;;;;;;23.22;52.41;103048.94;5076060;28;19925;-56